createdAt,value
2023-05-10T00:00:05.640Z,32.00
2023-05-10T00:01:05.639Z,32.03
2023-05-10T00:02:05.722Z,32.03
2023-05-10T00:03:05.754Z,32.06
2023-05-10T00:04:05.767Z,32.02
2023-05-10T00:05:05.681Z,32.06
2023-05-10T00:06:05.677Z,32.07
2023-05-10T00:07:05.667Z,32.03
2023-05-10T00:08:05.670Z,32.04
2023-05-10T00:09:05.648Z,32.04
2023-05-10T00:10:05.632Z,32.03
2023-05-10T00:11:05.623Z,32.00
2023-05-10T00:12:05.609Z,32.03
2023-05-10T00:13:05.632Z,32.04
2023-05-10T00:14:05.574Z,32.02
2023-05-10T00:15:05.564Z,32.02
2023-05-10T00:16:05.562Z,32.03
2023-05-10T00:17:05.533Z,32.04
2023-05-10T00:18:05.597Z,32.02
2023-05-10T00:19:05.522Z,32.02
2023-05-10T00:20:05.573Z,32.02
2023-05-10T00:21:05.484Z,32.03
2023-05-10T00:22:05.475Z,32.03
2023-05-10T00:23:05.462Z,32.00
2023-05-10T00:24:05.441Z,32.02
2023-05-10T00:25:05.434Z,32.02
2023-05-10T00:26:05.431Z,32.03
2023-05-10T00:27:05.404Z,32.03
2023-05-10T00:28:05.408Z,32.07
2023-05-10T00:29:05.374Z,32.00
2023-05-10T00:30:05.380Z,32.04
2023-05-10T00:31:05.361Z,32.02
2023-05-10T00:32:05.369Z,32.01
2023-05-10T00:33:05.391Z,32.06
2023-05-10T00:34:05.320Z,32.06
2023-05-10T00:35:05.331Z,32.07
2023-05-10T00:36:05.334Z,32.02
2023-05-10T00:37:05.290Z,32.03
2023-05-10T00:38:05.279Z,32.04
2023-05-10T00:39:05.262Z,32.02
2023-05-10T00:40:05.261Z,32.02
2023-05-10T00:41:05.234Z,32.01
2023-05-10T00:42:05.239Z,32.06
2023-05-10T00:43:05.228Z,32.00
2023-05-10T00:44:05.212Z,32.00
2023-05-10T00:45:05.197Z,31.99
2023-05-10T00:46:05.250Z,32.04
2023-05-10T00:47:05.170Z,32.02
2023-05-10T00:48:05.375Z,32.01
2023-05-10T00:49:05.151Z,32.00
2023-05-10T00:50:05.139Z,32.04
2023-05-10T00:51:05.140Z,32.07
2023-05-10T00:52:05.106Z,32.02
2023-05-10T00:53:05.100Z,32.03
2023-05-10T00:54:05.099Z,32.04
2023-05-10T00:55:05.082Z,32.01
2023-05-10T00:56:05.080Z,32.00
2023-05-10T00:57:05.060Z,31.97
2023-05-10T00:58:05.051Z,32.03
2023-05-10T00:59:05.102Z,31.99
2023-05-10T01:00:05.100Z,32.00
2023-05-10T01:01:05.171Z,32.01
2023-05-10T01:02:05.199Z,31.98
2023-05-10T01:03:05.243Z,32.00
2023-05-10T01:04:05.195Z,32.05
2023-05-10T01:05:05.231Z,32.01
2023-05-10T01:06:05.238Z,31.98
2023-05-10T01:07:05.268Z,32.03
2023-05-10T01:08:05.314Z,32.03
2023-05-10T01:09:05.327Z,32.05
2023-05-10T01:10:05.318Z,31.98
2023-05-10T01:11:05.276Z,32.05
2023-05-10T01:12:05.317Z,32.04
2023-05-10T01:13:05.341Z,32.04
2023-05-10T01:14:05.272Z,32.05
2023-05-10T01:15:05.240Z,32.05
2023-05-10T01:16:05.262Z,32.06
2023-05-10T01:17:05.209Z,32.04
2023-05-10T01:18:05.210Z,31.99
2023-05-10T01:19:05.192Z,32.03
2023-05-10T01:20:05.200Z,32.04
2023-05-10T01:21:05.172Z,31.99
2023-05-10T01:22:05.160Z,31.98
2023-05-10T01:23:05.149Z,32.01
2023-05-10T01:24:05.139Z,32.01
2023-05-10T01:25:05.134Z,32.03
2023-05-10T01:26:05.107Z,32.02
2023-05-10T01:27:05.135Z,32.02
2023-05-10T01:28:05.174Z,31.99
2023-05-10T01:29:05.228Z,31.98
2023-05-10T01:30:13.983Z,31.99
2023-05-10T01:31:06.313Z,31.97
2023-05-10T01:32:05.208Z,32.01
2023-05-10T01:33:05.242Z,32.02
2023-05-10T01:34:05.183Z,31.99
2023-05-10T01:35:05.176Z,32.02
2023-05-10T01:36:05.169Z,32.05
2023-05-10T01:37:05.174Z,31.99
2023-05-10T01:38:05.152Z,32.03
2023-05-10T01:39:05.126Z,32.02
2023-05-10T01:40:05.165Z,32.03
2023-05-10T01:41:05.093Z,32.01
2023-05-10T01:42:05.093Z,32.02
2023-05-10T01:43:05.088Z,31.98
2023-05-10T01:44:05.084Z,32.03
2023-05-10T01:45:05.061Z,32.02
2023-05-10T01:46:05.061Z,31.97
2023-05-10T01:47:05.121Z,31.98
2023-05-10T01:48:05.170Z,31.98
2023-05-10T01:49:05.141Z,32.02
2023-05-10T01:50:05.171Z,31.98
2023-05-10T01:51:05.230Z,32.01
2023-05-10T01:52:05.242Z,31.99
2023-05-10T01:53:05.270Z,31.98
2023-05-10T01:54:05.306Z,31.96
2023-05-10T01:55:05.339Z,32.01
2023-05-10T01:56:05.377Z,31.99
2023-05-10T01:57:05.404Z,32.03
2023-05-10T01:58:05.430Z,32.03
2023-05-10T01:59:05.473Z,32.03
2023-05-10T02:00:05.502Z,32.01
2023-05-10T02:01:05.576Z,31.98
2023-05-10T02:02:05.569Z,31.99
2023-05-10T02:03:05.675Z,32.01
2023-05-10T02:04:05.755Z,32.03
2023-05-10T02:05:05.684Z,31.98
2023-05-10T02:06:05.695Z,32.06
2023-05-10T02:07:05.690Z,32.03
2023-05-10T02:08:05.679Z,31.98
2023-05-10T02:09:05.679Z,32.01
2023-05-10T02:10:05.671Z,32.01
2023-05-10T02:11:05.653Z,32.02
2023-05-10T02:12:05.657Z,32.03
2023-05-10T02:13:05.688Z,31.96
2023-05-10T02:14:05.651Z,32.06
2023-05-10T02:15:05.636Z,32.02
2023-05-10T02:16:05.679Z,32.02
2023-05-10T02:17:05.612Z,32.01
2023-05-10T02:18:05.653Z,31.99
2023-05-10T02:19:05.592Z,31.99
2023-05-10T02:20:05.588Z,32.02
2023-05-10T02:21:05.571Z,32.03
2023-05-10T02:22:05.608Z,32.03
2023-05-10T02:23:05.661Z,31.99
2023-05-10T02:24:05.714Z,32.02
2023-05-10T02:25:05.758Z,31.99
2023-05-10T02:26:05.811Z,32.02
2023-05-10T02:27:05.854Z,32.02
2023-05-10T02:28:05.901Z,32.03
2023-05-10T02:29:05.948Z,32.02
2023-05-10T02:30:05.992Z,32.00
2023-05-10T02:31:06.054Z,31.99
2023-05-10T02:32:06.126Z,32.08
2023-05-10T02:33:06.189Z,32.02
2023-05-10T02:34:06.205Z,31.98
2023-05-10T02:35:06.242Z,32.02
2023-05-10T02:36:06.288Z,32.03
2023-05-10T02:37:06.341Z,32.00
2023-05-10T02:38:06.384Z,32.03
2023-05-10T02:39:06.444Z,32.04
2023-05-10T02:40:06.492Z,32.06
2023-05-10T02:41:06.550Z,32.02
2023-05-10T02:42:06.595Z,32.02
2023-05-10T02:43:06.640Z,31.99
2023-05-10T02:44:06.686Z,32.06
2023-05-10T02:45:06.744Z,32.03
2023-05-10T02:46:06.806Z,32.06
2023-05-10T02:47:06.853Z,32.05
2023-05-10T02:48:06.925Z,32.03
2023-05-10T02:49:06.946Z,32.06
2023-05-10T02:50:06.982Z,31.99
2023-05-10T02:51:07.046Z,32.00
2023-05-10T02:52:07.096Z,32.03
2023-05-10T02:53:07.151Z,32.00
2023-05-10T02:54:07.194Z,32.02
2023-05-10T02:55:07.250Z,32.04
2023-05-10T02:56:07.296Z,32.02
2023-05-10T02:57:07.342Z,32.00
2023-05-10T02:58:07.400Z,32.04
2023-05-10T02:59:07.456Z,32.06
2023-05-10T03:00:07.504Z,32.04
2023-05-10T03:01:07.580Z,32.02
2023-05-10T03:02:07.607Z,32.04
2023-05-10T03:03:07.758Z,32.03
2023-05-10T03:04:07.761Z,32.03
2023-05-10T03:05:07.758Z,32.04
2023-05-10T03:06:07.813Z,32.04
2023-05-10T03:07:07.859Z,32.04
2023-05-10T03:08:08.031Z,32.00
2023-05-10T03:09:07.979Z,32.04
2023-05-10T03:10:08.020Z,32.05
2023-05-10T03:11:08.065Z,32.05
2023-05-10T03:12:08.075Z,31.98
2023-05-10T03:13:08.088Z,32.08
2023-05-10T03:14:08.050Z,32.01
2023-05-10T03:15:08.090Z,32.06
2023-05-10T03:16:08.049Z,32.04
2023-05-10T03:17:08.048Z,32.03
2023-05-10T03:18:08.066Z,32.01
2023-05-10T03:19:08.033Z,32.04
2023-05-10T03:20:08.024Z,32.00
2023-05-10T03:21:08.015Z,32.04
2023-05-10T03:22:08.014Z,32.08
2023-05-10T03:23:08.062Z,32.05
2023-05-10T03:24:08.141Z,32.05
2023-05-10T03:25:08.175Z,32.03
2023-05-10T03:26:08.230Z,32.05
2023-05-10T03:27:08.317Z,32.05
2023-05-10T03:28:08.332Z,32.01
2023-05-10T03:29:08.386Z,32.07
2023-05-10T03:30:08.435Z,32.05
2023-05-10T03:31:08.584Z,32.04
2023-05-10T03:32:08.536Z,32.05
2023-05-10T03:33:08.652Z,32.11
2023-05-10T03:34:08.655Z,32.10
2023-05-10T03:35:08.715Z,32.05
2023-05-10T03:36:08.737Z,32.10
2023-05-10T03:37:08.789Z,32.04
2023-05-10T03:38:08.854Z,32.05
2023-05-10T03:39:08.904Z,32.12
2023-05-10T03:40:08.981Z,32.02
2023-05-10T03:41:09.018Z,32.08
2023-05-10T03:42:09.060Z,32.08
2023-05-10T03:43:09.113Z,32.08
2023-05-10T03:44:09.209Z,32.09
2023-05-10T03:45:09.221Z,32.09
2023-05-10T03:46:09.266Z,32.07
2023-05-10T03:47:09.416Z,32.12
2023-05-10T03:48:09.398Z,32.07
2023-05-10T03:49:09.325Z,32.09
2023-05-10T03:50:09.308Z,32.04
2023-05-10T03:51:09.301Z,32.14
2023-05-10T03:52:09.294Z,32.10
2023-05-10T03:53:09.299Z,32.06
2023-05-10T03:54:09.294Z,32.08
2023-05-10T03:55:09.277Z,32.04
2023-05-10T03:56:09.295Z,32.06
2023-05-10T03:57:09.265Z,32.09
2023-05-10T03:58:09.266Z,32.08
2023-05-10T03:59:09.316Z,32.12
2023-05-10T04:00:09.352Z,32.08
2023-05-10T04:01:09.409Z,32.08
2023-05-10T04:02:09.523Z,32.08
2023-05-10T04:03:09.574Z,32.14
2023-05-10T04:04:09.636Z,32.13
2023-05-10T04:05:09.609Z,32.07
2023-05-10T04:06:09.684Z,32.10
2023-05-10T04:07:09.723Z,32.16
2023-05-10T04:08:09.794Z,32.10
2023-05-10T04:09:09.854Z,32.08
2023-05-10T04:10:09.881Z,32.09
2023-05-10T04:11:09.934Z,32.11
2023-05-10T04:12:11.086Z,32.10
2023-05-10T04:13:10.059Z,32.12
2023-05-10T04:14:10.078Z,32.14
2023-05-10T04:15:10.115Z,32.12
2023-05-10T04:16:10.153Z,32.16
2023-05-10T04:17:10.341Z,32.08
2023-05-10T04:18:10.307Z,32.10
2023-05-10T04:19:10.313Z,32.10
2023-05-10T04:20:10.299Z,32.16
2023-05-10T04:21:10.296Z,32.14
2023-05-10T04:22:10.294Z,32.10
2023-05-10T04:23:10.289Z,32.10
2023-05-10T04:24:10.282Z,32.08
2023-05-10T04:25:10.274Z,32.13
2023-05-10T04:26:10.270Z,32.10
2023-05-10T04:27:10.263Z,32.13
2023-05-10T04:28:10.252Z,32.09
2023-05-10T04:29:10.278Z,32.14
2023-05-10T04:30:10.247Z,32.13
2023-05-10T04:31:10.271Z,32.13
2023-05-10T04:32:10.284Z,32.13
2023-05-10T04:33:10.250Z,32.11
2023-05-10T04:34:10.229Z,32.12
2023-05-10T04:35:10.248Z,32.13
2023-05-10T04:36:10.221Z,32.14
2023-05-10T04:37:10.220Z,32.13
2023-05-10T04:38:10.197Z,32.09
2023-05-10T04:39:10.193Z,32.16
2023-05-10T04:40:10.191Z,32.13
2023-05-10T04:41:10.237Z,32.16
2023-05-10T04:42:10.235Z,32.16
2023-05-10T04:43:10.299Z,32.20
2023-05-10T04:44:10.338Z,32.17
2023-05-10T04:45:10.401Z,32.13
2023-05-10T04:46:10.469Z,32.11
2023-05-10T04:47:11.997Z,32.13
2023-05-10T04:48:10.530Z,32.13
2023-05-10T04:49:10.583Z,32.06
2023-05-10T04:50:10.621Z,32.16
2023-05-10T04:51:10.671Z,32.10
2023-05-10T04:52:10.732Z,32.13
2023-05-10T04:53:10.767Z,32.13
2023-05-10T04:54:10.820Z,32.14
2023-05-10T04:55:10.902Z,32.14
2023-05-10T04:56:10.903Z,32.14
2023-05-10T04:57:10.943Z,32.14
2023-05-10T04:58:10.997Z,32.14
2023-05-10T04:59:11.044Z,32.17
2023-05-10T05:00:11.088Z,32.13
2023-05-10T05:01:11.117Z,32.14
2023-05-10T05:02:11.062Z,32.13
2023-05-10T05:03:11.189Z,32.13
2023-05-10T05:04:11.059Z,32.11
2023-05-10T05:05:11.036Z,32.15
2023-05-10T05:06:11.039Z,32.14
2023-05-10T05:07:11.028Z,32.16
2023-05-10T05:08:11.024Z,32.11
2023-05-10T05:09:11.028Z,32.15
2023-05-10T05:10:11.013Z,32.15
2023-05-10T05:11:11.009Z,32.14
2023-05-10T05:12:11.033Z,32.13
2023-05-10T05:13:11.095Z,32.13
2023-05-10T05:14:10.999Z,32.14
2023-05-10T05:15:11.008Z,32.11
2023-05-10T05:16:10.987Z,32.13
2023-05-10T05:17:10.992Z,32.14
2023-05-10T05:18:10.998Z,32.14
2023-05-10T05:19:10.978Z,32.14
2023-05-10T05:20:11.027Z,32.13
2023-05-10T05:21:11.051Z,32.19
2023-05-10T05:22:11.127Z,32.19
2023-05-10T05:23:11.161Z,32.13
2023-05-10T05:24:11.218Z,32.17
2023-05-10T05:25:11.258Z,32.17
2023-05-10T05:26:11.309Z,32.13
2023-05-10T05:27:11.335Z,32.19
2023-05-10T05:28:11.385Z,32.14
2023-05-10T05:29:11.451Z,32.13
2023-05-10T05:30:11.493Z,32.17
2023-05-10T05:31:11.614Z,32.14
2023-05-10T05:32:11.625Z,32.39
2023-05-10T05:33:11.710Z,32.48
2023-05-10T05:34:11.685Z,32.48
2023-05-10T05:35:11.753Z,32.47
2023-05-10T05:36:11.768Z,32.46
2023-05-10T05:37:12.644Z,32.50
2023-05-10T05:38:11.872Z,32.68
2023-05-10T05:39:11.947Z,33.06
2023-05-10T05:40:11.971Z,32.81
2023-05-10T05:41:12.043Z,32.76
2023-05-10T05:42:12.049Z,33.58
2023-05-10T05:43:12.154Z,33.38
2023-05-10T05:44:12.188Z,33.74
2023-05-10T05:45:12.210Z,34.13
2023-05-10T05:46:12.338Z,34.37
2023-05-10T05:47:12.328Z,34.75
2023-05-10T05:48:12.428Z,34.84
2023-05-10T05:49:12.420Z,34.78
2023-05-10T05:50:12.467Z,35.24
2023-05-10T05:51:12.496Z,35.82
2023-05-10T05:52:12.539Z,35.78
2023-05-10T05:53:12.584Z,36.11
2023-05-10T05:54:12.656Z,36.38
2023-05-10T05:55:12.650Z,36.52
2023-05-10T05:56:12.697Z,36.73
2023-05-10T05:57:12.724Z,37.04
2023-05-10T05:58:12.765Z,37.11
2023-05-10T05:59:12.809Z,37.17
2023-05-10T06:00:12.795Z,37.36
2023-05-10T06:01:12.835Z,37.42
2023-05-10T06:02:12.893Z,37.61
2023-05-10T06:03:12.874Z,37.72
2023-05-10T06:04:12.812Z,37.86
2023-05-10T06:05:12.819Z,37.90
2023-05-10T06:06:12.774Z,38.03
2023-05-10T06:07:12.824Z,38.03
2023-05-10T06:08:12.774Z,38.04
2023-05-10T06:09:12.753Z,38.21
2023-05-10T06:10:12.743Z,38.24
2023-05-10T06:11:12.747Z,38.34
2023-05-10T06:12:12.750Z,38.44
2023-05-10T06:13:12.809Z,38.56
2023-05-10T06:14:12.686Z,38.54
2023-05-10T06:15:12.804Z,38.55
2023-05-10T06:16:12.744Z,38.64
2023-05-10T06:17:12.730Z,38.60
2023-05-10T06:18:12.694Z,38.73
2023-05-10T06:19:12.659Z,38.63
2023-05-10T06:20:12.652Z,38.58
2023-05-10T06:21:12.626Z,38.82
2023-05-10T06:22:12.656Z,38.75
2023-05-10T06:23:12.603Z,38.93
2023-05-10T06:24:12.603Z,39.00
2023-05-10T06:25:12.623Z,39.02
2023-05-10T06:26:12.560Z,39.15
2023-05-10T06:27:12.606Z,39.21
2023-05-10T06:28:12.624Z,39.20
2023-05-10T06:29:12.534Z,39.20
2023-05-10T06:30:13.665Z,39.16
2023-05-10T06:31:12.527Z,39.24
2023-05-10T06:32:12.501Z,39.31
2023-05-10T06:33:12.560Z,39.33
2023-05-10T06:34:12.474Z,39.31
2023-05-10T06:35:12.553Z,39.36
2023-05-10T06:36:12.547Z,39.40
2023-05-10T06:37:12.446Z,39.28
2023-05-10T06:38:12.419Z,39.34
2023-05-10T06:39:12.424Z,39.31
2023-05-10T06:40:12.464Z,39.39
2023-05-10T06:41:12.382Z,39.69
2023-05-10T06:42:12.425Z,39.63
2023-05-10T06:43:13.142Z,39.61
2023-05-10T06:44:12.328Z,39.48
2023-05-10T06:45:12.360Z,39.42
2023-05-10T06:46:12.359Z,39.18
2023-05-10T06:47:12.304Z,38.95
2023-05-10T06:48:12.343Z,38.97
2023-05-10T06:49:12.253Z,38.87
2023-05-10T06:50:12.462Z,38.73
2023-05-10T06:51:12.233Z,38.46
2023-05-10T06:52:12.247Z,37.80
2023-05-10T06:53:12.269Z,37.42
2023-05-10T06:54:12.211Z,37.20
2023-05-10T06:55:12.209Z,37.29
2023-05-10T06:56:12.166Z,37.22
2023-05-10T06:57:23.437Z,36.47
2023-05-10T06:58:13.128Z,36.44
2023-05-10T06:59:12.127Z,36.39
2023-05-10T07:00:12.194Z,36.41
2023-05-10T07:01:12.195Z,35.99
2023-05-10T07:02:12.254Z,35.85
2023-05-10T07:04:12.057Z,35.90
2023-05-10T07:05:12.077Z,35.79
2023-05-10T07:06:21.585Z,35.62
2023-05-10T07:07:13.020Z,35.51
2023-05-10T07:08:12.001Z,35.38
2023-05-10T07:09:11.994Z,35.34
2023-05-10T07:10:12.011Z,35.40
2023-05-10T07:11:11.949Z,35.30
2023-05-10T07:12:14.751Z,35.33
2023-05-10T07:13:12.006Z,35.35
2023-05-10T07:14:11.937Z,35.13
2023-05-10T07:15:11.935Z,35.16
2023-05-10T07:16:11.973Z,35.04
2023-05-10T07:17:11.949Z,35.13
2023-05-10T07:18:12.109Z,35.09
2023-05-10T07:19:11.877Z,35.17
2023-05-10T07:20:12.001Z,35.04
2023-05-10T07:22:11.852Z,34.94
2023-05-10T07:23:11.837Z,34.96
2023-05-10T07:24:11.845Z,34.92
2023-05-10T07:25:11.844Z,34.91
2023-05-10T07:26:11.831Z,34.81
2023-05-10T07:27:11.778Z,34.92
2023-05-10T07:28:11.790Z,34.72
2023-05-10T07:29:11.777Z,34.67
2023-05-10T07:30:12.195Z,34.67
2023-05-10T07:31:11.750Z,34.65
2023-05-10T07:32:11.759Z,34.57
2023-05-10T07:33:11.753Z,34.71
2023-05-10T07:34:11.696Z,34.65
2023-05-10T07:35:11.686Z,34.65
2023-05-10T07:37:11.662Z,34.77
2023-05-10T07:38:11.655Z,34.96
2023-05-10T07:39:16.239Z,35.32
2023-05-10T07:40:12.646Z,35.42
2023-05-10T07:41:11.627Z,35.73
2023-05-10T07:42:11.635Z,35.71
2023-05-10T07:43:11.614Z,35.80
2023-05-10T07:44:11.633Z,35.91
2023-05-10T07:45:11.601Z,36.00
2023-05-10T07:46:11.643Z,36.03
2023-05-10T07:47:11.565Z,36.02
2023-05-10T07:48:11.555Z,36.20
2023-05-10T07:49:11.610Z,36.23
2023-05-10T07:50:11.505Z,36.20
2023-05-10T07:51:11.518Z,36.25
2023-05-10T07:52:11.471Z,36.27
2023-05-10T07:53:11.441Z,36.39
2023-05-10T07:54:11.449Z,36.53
2023-05-10T07:55:11.408Z,36.52
2023-05-10T07:56:11.413Z,36.63
2023-05-10T07:57:11.443Z,36.74
2023-05-10T07:58:11.482Z,36.76
2023-05-10T07:59:12.784Z,36.72
2023-05-10T08:00:11.588Z,36.77
2023-05-10T08:01:11.652Z,36.82
2023-05-10T08:02:11.736Z,36.82
2023-05-10T08:03:11.839Z,36.95
2023-05-10T08:04:11.825Z,36.99
2023-05-10T08:05:12.202Z,37.06
2023-05-10T08:06:11.903Z,37.13
2023-05-10T08:07:11.867Z,37.17
2023-05-10T08:08:11.867Z,37.25
2023-05-10T08:09:11.865Z,37.34
2023-05-10T08:10:11.828Z,37.58
2023-05-10T08:11:11.794Z,37.56
2023-05-10T08:12:11.776Z,37.70
2023-05-10T08:13:11.737Z,37.62
2023-05-10T08:14:11.732Z,37.69
2023-05-10T08:15:11.735Z,37.74
2023-05-10T08:16:11.729Z,37.74
2023-05-10T08:17:11.730Z,37.78
2023-05-10T08:18:11.731Z,37.77
2023-05-10T08:19:11.785Z,37.71
2023-05-10T08:20:11.703Z,37.75
2023-05-10T08:21:11.632Z,37.77
2023-05-10T08:22:11.631Z,37.84
2023-05-10T08:23:11.610Z,37.89
2023-05-10T08:24:11.598Z,37.95
2023-05-10T08:25:11.576Z,37.97
2023-05-10T08:26:11.599Z,37.98
2023-05-10T08:27:11.599Z,38.08
2023-05-10T08:28:12.037Z,37.98
2023-05-10T08:29:11.580Z,38.11
2023-05-10T08:30:11.619Z,38.23
2023-05-10T08:31:11.578Z,38.06
2023-05-10T08:32:11.463Z,38.05
2023-05-10T08:33:11.423Z,37.88
2023-05-10T08:34:11.402Z,37.85
2023-05-10T08:35:11.411Z,37.69
2023-05-10T08:36:11.402Z,37.36
2023-05-10T08:37:11.359Z,37.34
2023-05-10T08:38:11.341Z,36.80
2023-05-10T08:39:22.917Z,36.76
2023-05-10T08:40:12.411Z,36.61
2023-05-10T08:41:11.314Z,36.19
2023-05-10T08:42:11.347Z,36.05
2023-05-10T08:43:11.316Z,35.90
2023-05-10T08:44:11.264Z,35.85
2023-05-10T08:45:11.327Z,35.60
2023-05-10T08:46:11.222Z,35.62
2023-05-10T08:47:11.293Z,36.07
2023-05-10T08:48:11.301Z,36.19
2023-05-10T08:49:11.190Z,36.17
2023-05-10T08:50:11.229Z,35.95
2023-05-10T08:51:11.154Z,36.29
2023-05-10T08:52:11.167Z,36.20
2023-05-10T08:53:11.141Z,35.86
2023-05-10T08:54:11.140Z,35.62
2023-05-10T08:55:11.196Z,35.57
2023-05-10T08:56:11.253Z,35.39
2023-05-10T08:57:11.326Z,35.31
2023-05-10T08:58:11.343Z,35.22
2023-05-10T08:59:11.346Z,35.19
2023-05-10T09:00:11.368Z,35.25
2023-05-10T09:01:11.453Z,35.48
2023-05-10T09:02:11.386Z,35.48
2023-05-10T09:03:11.457Z,35.48
2023-05-10T09:04:11.487Z,35.44
2023-05-10T09:05:11.491Z,35.37
2023-05-10T09:06:11.428Z,35.31
2023-05-10T09:07:11.436Z,35.27
2023-05-10T09:08:11.508Z,35.18
2023-05-10T09:09:11.486Z,35.15
2023-05-10T09:10:11.455Z,35.09
2023-05-10T09:11:11.512Z,35.04
2023-05-10T09:12:11.631Z,34.95
2023-05-10T09:13:11.650Z,34.89
2023-05-10T09:14:11.693Z,34.85
2023-05-10T09:15:11.781Z,34.86
2023-05-10T09:16:21.163Z,34.77
2023-05-10T09:17:12.918Z,34.72
2023-05-10T09:18:11.892Z,34.72
2023-05-10T09:19:11.899Z,34.65
2023-05-10T09:20:11.795Z,34.61
2023-05-10T09:21:11.834Z,34.54
2023-05-10T09:22:11.800Z,34.49
2023-05-10T09:23:11.762Z,34.49
2023-05-10T09:24:11.766Z,34.47
2023-05-10T09:25:11.781Z,34.44
2023-05-10T09:26:11.808Z,34.41
2023-05-10T09:27:11.934Z,34.37
2023-05-10T09:28:11.969Z,34.36
2023-05-10T09:29:11.911Z,34.31
2023-05-10T09:30:11.975Z,34.22
2023-05-10T09:31:12.063Z,34.16
2023-05-10T09:32:13.750Z,34.22
2023-05-10T09:33:12.078Z,34.14
2023-05-10T09:34:12.090Z,34.15
2023-05-10T09:35:12.135Z,33.78
2023-05-10T09:36:12.209Z,33.83
2023-05-10T09:37:12.141Z,33.82
2023-05-10T09:38:12.175Z,33.87
2023-05-10T09:39:12.207Z,33.94
2023-05-10T09:40:12.258Z,34.25
2023-05-10T09:41:12.313Z,34.91
2023-05-10T09:42:12.288Z,36.02
2023-05-10T09:43:12.280Z,36.03
2023-05-10T09:44:12.536Z,36.26
2023-05-10T09:45:12.243Z,36.55
2023-05-10T09:46:12.354Z,36.83
2023-05-10T09:47:12.241Z,36.79
2023-05-10T09:48:12.309Z,37.06
2023-05-10T09:49:12.183Z,37.41
2023-05-10T09:50:12.266Z,37.61
2023-05-10T09:51:12.264Z,37.74
2023-05-10T09:52:12.324Z,37.85
2023-05-10T09:53:12.375Z,38.05
2023-05-10T09:54:12.472Z,38.23
2023-05-10T09:55:12.522Z,38.40
2023-05-10T09:56:12.518Z,38.62
2023-05-10T09:57:12.584Z,38.68
2023-05-10T09:58:12.616Z,38.83
2023-05-10T09:59:12.680Z,38.98
2023-05-10T10:00:12.692Z,39.06
2023-05-10T10:01:12.775Z,39.01
2023-05-10T10:02:12.817Z,39.07
2023-05-10T10:03:12.891Z,39.07
2023-05-10T10:04:12.967Z,39.10
2023-05-10T10:05:12.976Z,39.13
2023-05-10T10:06:26.470Z,39.13
2023-05-10T10:07:13.925Z,39.25
2023-05-10T10:08:12.919Z,39.28
2023-05-10T10:09:12.935Z,39.26
2023-05-10T10:10:12.876Z,39.40
2023-05-10T10:11:12.869Z,39.52
2023-05-10T10:12:12.873Z,39.54
2023-05-10T10:13:12.842Z,39.58
2023-05-10T10:14:12.850Z,39.63
2023-05-10T10:15:14.070Z,39.84
2023-05-10T10:16:14.286Z,39.87
2023-05-10T10:17:12.781Z,39.73
2023-05-10T10:18:12.779Z,39.77
2023-05-10T10:19:12.749Z,39.75
2023-05-10T10:20:12.768Z,39.68
2023-05-10T10:21:12.736Z,39.65
2023-05-10T10:22:12.765Z,39.69
2023-05-10T10:23:13.191Z,39.64
2023-05-10T10:24:12.689Z,39.67
2023-05-10T10:25:12.653Z,39.60
2023-05-10T10:26:12.728Z,39.63
2023-05-10T10:27:12.660Z,39.63
2023-05-10T10:28:12.696Z,39.60
2023-05-10T10:29:12.667Z,39.54
2023-05-10T10:30:12.602Z,39.56
2023-05-10T10:31:12.638Z,39.53
2023-05-10T10:32:12.572Z,39.55
2023-05-10T10:33:20.569Z,39.47
2023-05-10T10:34:13.533Z,39.42
2023-05-10T10:35:12.507Z,39.42
2023-05-10T10:36:12.520Z,39.29
2023-05-10T10:37:12.505Z,39.20
2023-05-10T10:38:12.641Z,39.33
2023-05-10T10:39:12.451Z,39.18
2023-05-10T10:40:12.412Z,39.21
2023-05-10T10:41:12.444Z,39.22
2023-05-10T10:42:12.427Z,38.92
2023-05-10T10:43:12.414Z,38.84
2023-05-10T10:44:12.383Z,38.19
2023-05-10T10:45:12.419Z,37.87
2023-05-10T10:46:12.506Z,36.88
2023-05-10T10:47:12.662Z,36.73
2023-05-10T10:48:12.530Z,36.65
2023-05-10T10:49:12.602Z,36.02
2023-05-10T10:50:12.615Z,35.91
2023-05-10T10:51:12.963Z,35.74
2023-05-10T10:52:12.796Z,35.61
2023-05-10T10:53:12.816Z,35.48
2023-05-10T10:54:12.820Z,35.25
2023-05-10T10:55:12.868Z,35.19
2023-05-10T10:56:12.853Z,35.37
2023-05-10T10:57:12.856Z,35.23
2023-05-10T10:58:12.822Z,35.05
2023-05-10T10:59:12.801Z,35.06
2023-05-10T11:00:12.787Z,35.01
2023-05-10T11:01:12.864Z,34.92
2023-05-10T11:02:13.712Z,34.79
2023-05-10T11:03:12.791Z,34.77
2023-05-10T11:04:12.766Z,34.70
2023-05-10T11:05:12.727Z,34.69
2023-05-10T11:06:12.714Z,34.59
2023-05-10T11:07:12.783Z,34.59
2023-05-10T11:08:12.669Z,34.77
2023-05-10T11:09:12.682Z,34.89
2023-05-10T11:10:12.652Z,34.94
2023-05-10T11:11:12.643Z,35.15
2023-05-10T11:12:12.623Z,35.24
2023-05-10T11:13:12.614Z,35.54
2023-05-10T11:14:12.682Z,35.57
2023-05-10T11:15:13.619Z,35.53
2023-05-10T11:16:12.657Z,35.53
2023-05-10T11:17:12.635Z,35.47
2023-05-10T11:18:12.576Z,35.39
2023-05-10T11:19:12.573Z,35.43
2023-05-10T11:20:12.588Z,35.56
2023-05-10T11:21:14.249Z,35.65
2023-05-10T11:22:12.485Z,35.71
2023-05-10T11:23:12.517Z,35.95
2023-05-10T11:24:12.488Z,35.93
2023-05-10T11:25:13.220Z,36.27
2023-05-10T11:26:12.533Z,36.34
2023-05-10T11:27:12.461Z,36.20
2023-05-10T11:28:12.483Z,36.21
2023-05-10T11:29:12.427Z,36.13
2023-05-10T11:30:12.409Z,36.49
2023-05-10T11:31:12.476Z,36.63
2023-05-10T11:32:12.380Z,36.43
2023-05-10T11:33:12.366Z,36.28
2023-05-10T11:34:12.371Z,36.38
2023-05-10T11:35:12.337Z,36.33
2023-05-10T11:36:12.347Z,36.50
2023-05-10T11:37:12.353Z,36.38
2023-05-10T11:38:12.328Z,36.28
2023-05-10T11:39:12.336Z,36.22
2023-05-10T11:40:12.345Z,36.17
2023-05-10T11:41:12.312Z,36.25
2023-05-10T11:42:12.257Z,36.22
2023-05-10T11:43:12.229Z,36.17
2023-05-10T11:44:12.217Z,36.14
2023-05-10T11:45:12.203Z,36.10
2023-05-10T11:46:12.220Z,36.27
2023-05-10T11:47:12.156Z,36.10
2023-05-10T11:48:12.204Z,36.08
2023-05-10T11:49:12.141Z,36.08
2023-05-10T11:50:12.159Z,36.03
2023-05-10T11:51:12.127Z,36.11
2023-05-10T11:52:12.095Z,36.03
2023-05-10T11:53:12.135Z,35.97
2023-05-10T11:54:12.122Z,35.99
2023-05-10T11:55:12.064Z,35.95
2023-05-10T11:56:12.143Z,35.92
2023-05-10T11:57:12.046Z,35.85
2023-05-10T11:58:12.025Z,35.87
2023-05-10T11:59:12.016Z,35.86
2023-05-10T12:00:12.002Z,35.84
2023-05-10T12:01:11.990Z,35.85
2023-05-10T12:02:11.972Z,35.85
2023-05-10T12:03:12.008Z,35.82
2023-05-10T12:04:12.018Z,35.81
2023-05-10T12:05:11.996Z,35.83
2023-05-10T12:06:11.891Z,35.81
2023-05-10T12:07:11.873Z,35.81
2023-05-10T12:08:11.881Z,35.80
2023-05-10T12:09:12.758Z,35.72
2023-05-10T12:10:11.865Z,35.66
2023-05-10T12:11:12.045Z,35.72
2023-05-10T12:12:11.870Z,35.76
2023-05-10T12:13:11.850Z,35.68
2023-05-10T12:14:11.848Z,35.62
2023-05-10T12:15:11.846Z,35.65
2023-05-10T12:16:11.874Z,35.63
2023-05-10T12:17:11.853Z,35.57
2023-05-10T12:18:11.877Z,35.59
2023-05-10T12:19:11.951Z,35.56
2023-05-10T12:20:11.845Z,35.55
2023-05-10T12:21:11.851Z,35.56
2023-05-10T12:22:11.984Z,35.50
2023-05-10T12:23:11.896Z,35.46
2023-05-10T12:24:11.861Z,35.47
2023-05-10T12:25:11.934Z,35.46
2023-05-10T12:26:11.918Z,35.47
2023-05-10T12:27:11.859Z,35.41
2023-05-10T12:28:11.898Z,35.43
2023-05-10T12:29:11.880Z,35.37
2023-05-10T12:30:11.890Z,35.39
2023-05-10T12:31:11.914Z,35.40
2023-05-10T12:32:12.144Z,35.41
2023-05-10T12:33:11.955Z,35.33
2023-05-10T12:34:11.888Z,35.37
2023-05-10T12:35:11.856Z,35.37
2023-05-10T12:36:11.840Z,35.35
2023-05-10T12:37:11.824Z,35.28
2023-05-10T12:38:11.818Z,35.40
2023-05-10T12:39:11.837Z,35.31
2023-05-10T12:40:11.869Z,35.25
2023-05-10T12:41:11.854Z,35.26
2023-05-10T12:42:11.786Z,35.27
2023-05-10T12:43:11.776Z,35.20
2023-05-10T12:44:11.760Z,35.25
2023-05-10T12:45:11.751Z,35.17
2023-05-10T12:46:11.760Z,35.17
2023-05-10T12:47:11.742Z,35.13
2023-05-10T12:48:11.821Z,35.16
2023-05-10T12:49:11.745Z,35.13
2023-05-10T12:50:11.690Z,35.13
2023-05-10T12:51:11.670Z,35.16
2023-05-10T12:52:11.635Z,35.13
2023-05-10T12:53:11.628Z,35.12
2023-05-10T12:54:11.694Z,35.12
2023-05-10T12:55:11.621Z,35.12